createdAt,value
2018-04-30T00:03:03.650Z,95397
2018-04-30T00:07:58.047Z,95400
2018-04-30T00:12:52.323Z,95407
2018-04-30T00:17:46.051Z,95400
2018-04-30T00:22:39.945Z,95404
2018-04-30T00:27:34.563Z,95405
2018-04-30T00:32:28.616Z,95398
2018-04-30T00:37:22.874Z,95402
2018-04-30T00:42:16.776Z,95403
2018-04-30T00:47:10.577Z,95401
2018-04-30T00:52:04.880Z,95376
2018-04-30T00:56:58.961Z,95404
2018-04-30T01:01:53.562Z,95408
2018-04-30T01:06:47.724Z,95396
2018-04-30T01:11:42.272Z,95390
2018-04-30T01:16:36.508Z,95393
2018-04-30T01:21:30.686Z,95391
2018-04-30T01:26:24.761Z,95389
2018-04-30T01:31:19.028Z,95388
2018-04-30T01:36:13.231Z,95394
2018-04-30T01:41:07.489Z,95383
2018-04-30T01:46:01.948Z,95380
2018-04-30T01:50:55.947Z,95385
2018-04-30T01:55:49.970Z,95392
2018-04-30T02:00:43.868Z,95402
2018-04-30T02:05:37.914Z,95390
2018-04-30T02:10:31.918Z,95384
2018-04-30T02:15:26.009Z,95382
2018-04-30T02:20:20.314Z,95384
2018-04-30T02:25:14.260Z,95383
2018-04-30T02:30:08.252Z,95358
2018-04-30T02:35:02.149Z,95370
2018-04-30T02:39:56.349Z,95374
2018-04-30T02:44:50.599Z,95370
2018-04-30T02:49:45.251Z,95373
2018-04-30T02:54:39.490Z,95375
2018-04-30T02:59:33.897Z,95376
2018-04-30T03:04:27.783Z,95384
2018-04-30T03:09:22.114Z,95376
2018-04-30T03:14:16.560Z,95383
2018-04-30T03:19:10.452Z,95382
2018-04-30T03:24:04.509Z,95376
2018-04-30T03:28:58.520Z,95385
2018-04-30T03:33:52.532Z,95387
2018-04-30T03:38:47.198Z,95387
2018-04-30T03:43:41.136Z,95398
2018-04-30T03:48:35.403Z,95395
2018-04-30T03:53:29.404Z,95388
2018-04-30T03:58:23.592Z,95398
2018-04-30T04:03:17.496Z,95399
2018-04-30T04:08:12.129Z,95401
2018-04-30T04:13:06.076Z,95400
2018-04-30T04:18:00.638Z,95405
2018-04-30T04:22:54.981Z,95405
2018-04-30T04:27:49.220Z,95409
2018-04-30T04:32:43.919Z,95412
2018-04-30T04:37:38.515Z,95401
2018-04-30T04:42:32.441Z,95405
2018-04-30T04:47:27.163Z,95408
2018-04-30T04:52:21.599Z,95410
2018-04-30T04:57:15.530Z,95403
2018-04-30T05:02:09.688Z,95423
2018-04-30T05:07:03.323Z,95426
2018-04-30T05:11:57.162Z,95426
2018-04-30T05:16:51.888Z,95435
2018-04-30T05:21:46.443Z,95430
2018-04-30T05:26:40.633Z,95435
2018-04-30T05:31:34.648Z,95424
2018-04-30T05:36:29.166Z,95432
2018-04-30T05:41:23.210Z,95423
2018-04-30T05:46:17.608Z,95430
2018-04-30T05:51:11.655Z,95423
2018-04-30T05:56:05.536Z,95430
2018-04-30T06:00:59.746Z,95402
2018-04-30T06:05:54.249Z,95423
2018-04-30T06:10:48.705Z,95426
2018-04-30T06:15:42.632Z,95438
2018-04-30T06:20:37.276Z,95432
2018-04-30T06:25:31.269Z,95434
2018-04-30T06:30:25.604Z,95438
2018-04-30T06:35:19.950Z,95419
2018-04-30T06:40:14.575Z,95426
2018-04-30T06:45:08.662Z,95423
2018-04-30T06:50:03.228Z,95431
2018-04-30T06:54:57.735Z,95418
2018-04-30T06:59:52.180Z,95417
2018-04-30T07:04:46.676Z,95417
2018-04-30T07:09:41.741Z,95418
2018-04-30T07:14:35.537Z,95407
2018-04-30T07:19:29.454Z,95403
2018-04-30T07:24:23.301Z,95386
2018-04-30T07:29:16.982Z,95397
2018-04-30T07:34:11.213Z,95402
2018-04-30T07:39:05.344Z,95390
2018-04-30T07:43:59.780Z,95393
2018-04-30T07:48:54.213Z,95380
2018-04-30T07:53:48.223Z,95391
2018-04-30T07:58:43.151Z,95363
2018-04-30T08:03:37.029Z,95382
2018-04-30T08:08:31.576Z,95387
2018-04-30T08:13:25.968Z,95365
2018-04-30T08:18:19.471Z,95368
2018-04-30T08:23:13.314Z,95363
2018-04-30T08:28:07.008Z,95355
2018-04-30T08:33:01.374Z,95350
2018-04-30T08:37:55.365Z,95339
2018-04-30T08:42:50.284Z,95337
2018-04-30T08:47:42.493Z,95338
2018-04-30T08:52:36.572Z,95322
2018-04-30T08:57:30.837Z,95295
2018-04-30T09:02:25.040Z,95313
2018-04-30T09:07:19.280Z,95316
2018-04-30T09:12:13.860Z,95282
2018-04-30T09:17:07.900Z,95300
2018-04-30T09:22:01.353Z,95284
2018-04-30T09:26:56.012Z,95293
2018-04-30T09:31:50.248Z,95285
2018-04-30T09:36:44.611Z,95290
2018-04-30T09:41:38.998Z,95283
2018-04-30T09:46:32.725Z,95273
2018-04-30T09:51:27.067Z,95266
2018-04-30T09:56:21.266Z,95260
2018-04-30T10:01:15.406Z,95254
2018-04-30T10:06:10.003Z,95252
2018-04-30T10:11:04.204Z,95249
2018-04-30T10:15:58.493Z,95244
2018-04-30T10:20:52.757Z,95239
2018-04-30T10:25:47.309Z,95241
2018-04-30T10:30:41.488Z,95235
2018-04-30T10:35:35.874Z,95227
2018-04-30T10:40:29.948Z,95221
2018-04-30T10:45:24.094Z,95224
2018-04-30T10:50:18.527Z,95219
2018-04-30T10:55:12.602Z,95209
2018-04-30T11:00:06.761Z,95202
2018-04-30T11:05:00.749Z,95202
2018-04-30T11:09:55.109Z,95198
2018-04-30T11:14:49.569Z,95202
2018-04-30T11:19:44.176Z,95185
2018-04-30T11:24:38.623Z,95192
2018-04-30T11:29:33.273Z,95186
2018-04-30T11:34:27.592Z,95181
2018-04-30T11:39:21.562Z,95174
2018-04-30T11:44:16.692Z,95167
2018-04-30T11:49:10.848Z,95169
2018-04-30T11:54:05.017Z,95156
2018-04-30T11:58:59.335Z,95146
2018-04-30T12:03:53.655Z,95138
2018-04-30T12:08:48.365Z,95138
2018-04-30T12:13:41.907Z,95132
2018-04-30T12:18:36.164Z,95124
2018-04-30T12:23:31.225Z,95128
2018-04-30T12:28:25.567Z,95123
2018-04-30T12:33:20.085Z,95114
2018-04-30T12:38:14.368Z,95111
2018-04-30T12:43:08.672Z,95114
2018-04-30T12:48:02.935Z,95106
2018-04-30T12:52:57.087Z,95101
2018-04-30T12:57:51.125Z,95102
2018-04-30T13:02:45.218Z,95102
2018-04-30T13:07:39.372Z,95096
2018-04-30T13:12:33.424Z,95099
2018-04-30T13:17:27.187Z,95089
2018-04-30T13:22:21.739Z,95085
2018-04-30T13:27:16.052Z,95102
2018-04-30T13:32:10.221Z,95089
2018-04-30T13:37:04.100Z,95092
2018-04-30T13:41:58.215Z,95077
2018-04-30T13:46:52.226Z,95079
2018-04-30T13:51:46.898Z,95081
2018-04-30T13:56:40.956Z,95059
2018-04-30T14:01:35.659Z,95081
2018-04-30T14:06:29.670Z,95075
2018-04-30T14:11:23.828Z,95077
2018-04-30T14:16:18.235Z,95074
2018-04-30T14:21:12.260Z,95083
2018-04-30T14:26:06.312Z,95090
2018-04-30T14:31:00.451Z,95090
2018-04-30T14:35:54.631Z,95085
2018-04-30T14:40:48.866Z,95084
2018-04-30T14:45:43.313Z,95085
2018-04-30T14:50:37.614Z,95075
2018-04-30T14:55:31.802Z,95077
2018-04-30T15:00:26.442Z,95076
2018-04-30T15:05:20.375Z,95074
2018-04-30T15:10:15.022Z,95061
2018-04-30T15:15:08.721Z,95069
2018-04-30T15:20:02.919Z,95074
2018-04-30T15:24:57.464Z,95069
2018-04-30T15:29:51.461Z,95043
2018-04-30T15:34:46.297Z,95063
2018-04-30T15:39:40.631Z,95051
2018-04-30T15:44:34.348Z,95056
2018-04-30T15:49:28.442Z,95055
2018-04-30T15:54:22.934Z,95057
2018-04-30T15:59:17.534Z,95053
2018-04-30T16:04:12.359Z,95052
2018-04-30T16:09:06.699Z,95047
2018-04-30T16:14:00.697Z,95052
2018-04-30T16:18:54.706Z,95059
2018-04-30T16:23:48.918Z,95066
2018-04-30T16:28:43.275Z,95065
2018-04-30T16:33:37.355Z,95069
2018-04-30T16:38:31.981Z,95065
2018-04-30T16:43:26.005Z,95078
2018-04-30T16:48:20.493Z,95084
2018-04-30T16:53:14.487Z,95088
2018-04-30T16:58:08.853Z,95099
2018-04-30T17:03:03.131Z,95101
2018-04-30T17:07:57.697Z,95101
2018-04-30T17:12:51.500Z,95113
2018-04-30T17:17:45.641Z,95118
2018-04-30T17:22:39.550Z,95123
2018-04-30T17:27:33.640Z,95125
2018-04-30T17:32:27.916Z,95131
2018-04-30T17:37:22.156Z,95131
2018-04-30T17:42:16.111Z,95120
2018-04-30T17:47:10.056Z,95142
2018-04-30T17:52:04.399Z,95148
2018-04-30T17:56:58.524Z,95142
2018-04-30T18:01:52.784Z,95150
2018-04-30T18:06:47.490Z,95138
2018-04-30T18:11:41.618Z,95137
2018-04-30T18:16:36.180Z,95145
2018-04-30T18:21:30.820Z,95126
2018-04-30T18:26:24.639Z,95147
2018-04-30T18:31:18.529Z,95152
2018-04-30T18:36:12.961Z,95156
2018-04-30T18:41:07.137Z,95161
2018-04-30T18:46:01.337Z,95169
2018-04-30T18:50:55.521Z,95169
2018-04-30T18:55:49.541Z,95160
2018-04-30T19:00:44.040Z,95159
2018-04-30T19:05:37.869Z,95178
2018-04-30T19:10:31.694Z,95169
2018-04-30T19:15:25.930Z,95186
2018-04-30T19:20:19.847Z,95184
2018-04-30T19:25:14.608Z,95182
2018-04-30T19:30:08.825Z,95188
2018-04-30T19:35:02.557Z,95191
2018-04-30T19:39:56.219Z,95203
2018-04-30T19:44:50.592Z,95201
2018-04-30T19:49:44.677Z,95203
2018-04-30T19:54:39.276Z,95208
2018-04-30T19:59:33.574Z,95204
2018-04-30T20:04:27.567Z,95207
2018-04-30T20:09:21.772Z,95205
2018-04-30T20:14:15.598Z,95203
2018-04-30T20:19:09.874Z,95221
2018-04-30T20:24:03.901Z,95220
2018-04-30T20:28:57.950Z,95221
2018-04-30T20:33:51.987Z,95219
2018-04-30T20:38:46.884Z,95204
2018-04-30T20:43:41.070Z,95215
2018-04-30T20:48:35.784Z,95218
2018-04-30T20:53:29.712Z,95223
2018-04-30T20:58:24.232Z,95214
2018-04-30T21:03:18.459Z,95218
2018-04-30T21:08:12.501Z,95211
2018-04-30T21:13:06.824Z,95212
2018-04-30T21:18:00.903Z,95212
2018-04-30T21:22:54.990Z,95218
2018-04-30T21:27:49.637Z,95227
2018-04-30T21:32:43.704Z,95236
2018-04-30T21:37:37.756Z,95249
2018-04-30T21:42:31.988Z,95253
2018-04-30T21:47:26.487Z,95252
2018-04-30T21:52:20.440Z,95262
2018-04-30T21:57:15.244Z,95265
2018-04-30T22:02:09.769Z,95263
2018-04-30T22:07:04.035Z,95264
2018-04-30T22:11:58.418Z,95270
2018-04-30T22:16:53.102Z,95278
2018-04-30T22:21:47.370Z,95269
2018-04-30T22:26:41.013Z,95276
2018-04-30T22:31:35.160Z,95281
2018-04-30T22:36:29.672Z,95272
2018-04-30T22:41:23.990Z,95268
2018-04-30T22:46:18.410Z,95265
2018-04-30T22:51:12.638Z,95270
2018-04-30T22:56:06.574Z,95253
2018-04-30T23:01:00.593Z,95252
2018-04-30T23:05:54.840Z,95251
2018-04-30T23:10:48.863Z,95249
2018-04-30T23:15:43.234Z,95237
2018-04-30T23:20:37.167Z,95250
2018-04-30T23:25:31.214Z,95244
2018-04-30T23:30:25.234Z,95241
2018-04-30T23:35:19.239Z,95248
2018-04-30T23:40:12.910Z,95244
2018-04-30T23:45:06.900Z,95240
2018-04-30T23:50:01.159Z,95238
2018-04-30T23:54:55.439Z,95241
2018-04-30T23:59:49.467Z,95241
